Terminal Aerodrome Forecast
Issued by NWS

Home | Current Version | Previous Version | Text Only | Print | Product List | Glossary On
Versions: 1 2 3 4 5 6 7 8 9 10 11 12 13 14 15
000
FTUS45 KRIW 191900 AAA
TAFBPI
TAF AMD
KBPI 191904Z 1919/2018 31010G18KT P6SM FEW100
     FM200100 35006KT P6SM SKC
     FM201300 VRB04KT P6SM SCT100=

USA.gov is the U.S. government's official web portal to all federal, state and local government web resources and services.